createdAt,value
2023-05-05T05:03:06.457Z,0.50
2023-05-05T05:04:07.343Z,0.50
2023-05-05T05:05:07.412Z,0.50
2023-05-05T05:06:06.505Z,0.50
2023-05-05T05:07:06.523Z,0.50
2023-05-05T05:08:06.410Z,0.50
2023-05-05T05:09:07.555Z,0.34
2023-05-05T05:10:06.713Z,0.34
2023-05-05T05:11:06.572Z,0.34
2023-05-05T05:12:07.698Z,0.34
2023-05-05T05:13:06.732Z,0.34
2023-05-05T05:14:07.736Z,0.34
2023-05-05T05:15:06.647Z,0.34
2023-05-05T05:16:07.807Z,0.34
2023-05-05T05:17:06.723Z,0.34
2023-05-05T05:18:06.778Z,0.34
2023-05-05T05:19:07.789Z,0.34
2023-05-05T05:20:06.921Z,0.34
2023-05-05T05:21:06.811Z,0.34
2023-05-05T05:22:07.739Z,0.34
2023-05-05T05:23:06.788Z,0.34
2023-05-05T05:24:06.880Z,0.34
2023-05-05T05:25:07.782Z,0.37
2023-05-05T05:26:07.865Z,0.43
2023-05-05T05:27:09.713Z,0.50
2023-05-05T05:28:10.762Z,0.50
2023-05-05T05:29:06.854Z,0.50
2023-05-05T05:30:07.246Z,0.47
2023-05-05T05:31:06.857Z,0.45
2023-05-05T05:32:07.034Z,0.43
2023-05-05T05:33:06.930Z,0.42
2023-05-05T05:34:06.760Z,0.49
2023-05-05T05:35:06.868Z,0.51
2023-05-05T05:36:06.856Z,0.50
2023-05-05T05:37:07.757Z,0.50
2023-05-05T05:38:06.828Z,0.50
2023-05-05T05:39:06.813Z,0.52
2023-05-05T05:40:07.083Z,0.51
2023-05-05T05:41:06.761Z,0.51
2023-05-05T05:42:06.713Z,0.50
2023-05-05T05:43:07.748Z,0.51
2023-05-05T05:44:07.706Z,0.51
2023-05-05T05:45:06.699Z,0.51
2023-05-05T05:46:09.031Z,0.51
2023-05-05T05:47:06.916Z,0.51
2023-05-05T05:48:08.058Z,0.50
2023-05-05T05:49:06.988Z,0.52
2023-05-05T05:50:08.281Z,0.51
2023-05-05T05:51:07.039Z,0.51
2023-05-05T05:52:07.049Z,0.50
2023-05-05T05:53:07.043Z,0.50
2023-05-05T05:54:08.087Z,0.52
2023-05-05T05:55:07.095Z,0.51
2023-05-05T05:56:08.128Z,0.51
2023-05-05T05:57:07.162Z,0.50
2023-05-05T05:58:07.182Z,0.51
2023-05-05T05:59:07.168Z,0.52
2023-05-05T06:00:07.357Z,0.52
2023-05-05T06:01:07.227Z,0.51
2023-05-05T06:02:07.494Z,0.51
2023-05-05T06:03:07.324Z,0.50
2023-05-05T06:04:07.599Z,0.51
2023-05-05T06:05:07.248Z,0.50
2023-05-05T06:06:08.339Z,0.51
2023-05-05T06:07:08.380Z,0.51
2023-05-05T06:08:07.391Z,0.51
2023-05-05T06:09:07.329Z,0.52
2023-05-05T06:10:25.199Z,0.52
2023-05-05T06:11:08.394Z,0.52
2023-05-05T06:12:07.402Z,0.52
2023-05-05T06:13:07.345Z,0.50
2023-05-05T06:14:08.407Z,0.50
2023-05-05T06:15:07.379Z,0.51
2023-05-05T06:16:07.498Z,0.51
2023-05-05T06:17:07.382Z,0.52
2023-05-05T06:18:07.651Z,0.51
2023-05-05T06:19:07.351Z,0.50
2023-05-05T06:20:08.453Z,0.52
2023-05-05T06:21:07.308Z,0.53
2023-05-05T06:22:07.351Z,0.54
2023-05-05T06:23:07.345Z,0.54
2023-05-05T06:24:07.319Z,0.55
2023-05-05T06:25:07.293Z,0.58
2023-05-05T06:26:08.250Z,0.58
2023-05-05T06:27:07.406Z,0.61
2023-05-05T06:28:07.316Z,0.66
2023-05-05T06:29:07.342Z,0.70
2023-05-05T06:30:07.562Z,0.79
2023-05-05T06:31:07.379Z,0.80
2023-05-05T06:32:07.417Z,0.79
2023-05-05T06:33:07.434Z,0.82
2023-05-05T06:34:08.561Z,0.82
2023-05-05T06:35:07.601Z,0.87
2023-05-05T06:36:07.609Z,0.86
2023-05-05T06:37:08.656Z,0.85
2023-05-05T06:38:07.663Z,0.91
2023-05-05T06:39:08.816Z,0.91
2023-05-05T06:40:08.088Z,0.89
2023-05-05T06:41:07.864Z,0.91
2023-05-05T06:42:08.929Z,0.92
2023-05-05T06:43:07.952Z,0.93
2023-05-05T06:44:09.051Z,0.96
2023-05-05T06:45:08.098Z,0.91
2023-05-05T06:46:08.038Z,0.94
2023-05-05T06:47:09.199Z,0.95
2023-05-05T06:48:08.416Z,0.98
2023-05-05T06:49:08.251Z,1.01
2023-05-05T06:50:08.443Z,1.03
2023-05-05T06:51:08.253Z,1.06
2023-05-05T06:52:08.410Z,1.10
2023-05-05T06:53:08.359Z,1.09
2023-05-05T06:54:08.414Z,1.07
2023-05-05T06:55:08.580Z,1.10
2023-05-05T06:56:08.530Z,1.05
2023-05-05T06:57:08.962Z,1.08
2023-05-05T06:58:08.629Z,1.02
2023-05-05T06:59:08.652Z,0.99
2023-05-05T07:00:08.912Z,1.03
2023-05-05T07:01:08.782Z,1.05
2023-05-05T07:02:09.757Z,1.08
2023-05-05T07:03:08.874Z,1.06
2023-05-05T07:04:08.906Z,1.11
2023-05-05T07:05:10.176Z,1.09
2023-05-05T07:06:08.964Z,1.15
2023-05-05T07:07:08.936Z,1.16
2023-05-05T07:08:09.032Z,1.21
2023-05-05T07:09:08.979Z,1.21
2023-05-05T07:10:09.309Z,1.24
2023-05-05T07:11:09.204Z,1.25
2023-05-05T07:12:09.140Z,1.31
2023-05-05T07:13:09.307Z,1.27
2023-05-05T07:14:10.165Z,1.29
2023-05-05T07:15:26.075Z,1.22
2023-05-05T07:16:10.283Z,1.20
2023-05-05T07:17:09.215Z,0.81
2023-05-05T07:18:09.232Z,1.03
2023-05-05T07:19:10.181Z,1.21
2023-05-05T07:20:10.440Z,1.25
2023-05-05T07:21:09.168Z,1.25
2023-05-05T07:22:10.167Z,1.21
2023-05-05T07:23:10.158Z,1.22
2023-05-05T07:24:09.144Z,1.21
2023-05-05T07:25:10.204Z,1.18
2023-05-05T07:26:09.164Z,1.17
2023-05-05T07:27:09.240Z,1.16
2023-05-05T07:28:10.122Z,1.15
2023-05-05T07:29:09.160Z,1.17
2023-05-05T07:30:13.989Z,1.16
2023-05-05T07:31:10.134Z,1.16
2023-05-05T07:32:09.078Z,1.17
2023-05-05T07:33:10.166Z,1.17
2023-05-05T07:34:10.134Z,1.18
2023-05-05T07:35:09.081Z,1.15
2023-05-05T07:36:09.119Z,1.17
2023-05-05T07:37:09.115Z,1.16
2023-05-05T07:38:10.855Z,1.19
2023-05-05T07:39:09.070Z,1.20
2023-05-05T07:40:10.406Z,1.17
2023-05-05T07:41:09.063Z,1.19
2023-05-05T07:42:10.080Z,1.22
2023-05-05T07:43:09.237Z,1.18
2023-05-05T07:44:09.041Z,1.21
2023-05-05T07:45:08.991Z,1.21
2023-05-05T07:46:09.293Z,1.23
2023-05-05T07:47:08.962Z,1.37
2023-05-05T07:48:09.509Z,1.43
2023-05-05T07:49:09.002Z,1.38
2023-05-05T07:50:09.293Z,1.40
2023-05-05T07:51:09.983Z,1.41
2023-05-05T07:52:08.953Z,1.42
2023-05-05T07:53:14.453Z,1.44
2023-05-05T07:54:10.020Z,1.44
2023-05-05T07:55:09.951Z,1.44
2023-05-05T07:56:09.956Z,1.46
2023-05-05T07:57:09.988Z,1.47
2023-05-05T07:58:08.942Z,1.51
2023-05-05T07:59:09.074Z,1.53
2023-05-05T08:00:09.305Z,1.51
2023-05-05T08:01:08.987Z,1.50
2023-05-05T08:02:09.066Z,1.49
2023-05-05T08:03:11.518Z,1.51
2023-05-05T08:04:09.152Z,1.54
2023-05-05T08:05:09.792Z,1.55
2023-05-05T08:06:09.071Z,1.52
2023-05-05T08:07:09.032Z,1.54
2023-05-05T08:08:09.001Z,1.56
2023-05-05T08:09:09.981Z,1.55
2023-05-05T08:10:09.980Z,1.60
2023-05-05T08:11:10.015Z,1.58
2023-05-05T08:12:08.956Z,1.61
2023-05-05T08:13:10.074Z,1.62
2023-05-05T08:14:08.963Z,1.63
2023-05-05T08:15:10.467Z,1.67
2023-05-05T08:16:09.009Z,1.68
2023-05-05T08:17:08.957Z,1.65
2023-05-05T08:18:08.918Z,1.65
2023-05-05T08:19:21.121Z,1.64
2023-05-05T08:20:11.015Z,1.64
2023-05-05T08:21:09.988Z,1.47
2023-05-05T08:22:08.939Z,1.49
2023-05-05T08:23:08.935Z,1.35
2023-05-05T08:24:09.894Z,1.36
2023-05-05T08:25:09.162Z,1.34
2023-05-05T08:26:08.868Z,1.35
2023-05-05T08:27:08.953Z,1.32
2023-05-05T08:28:08.951Z,1.32
2023-05-05T08:29:08.917Z,1.37
2023-05-05T08:30:08.822Z,1.40
2023-05-05T08:31:09.998Z,1.44
2023-05-05T08:32:08.917Z,1.42
2023-05-05T08:33:08.849Z,1.43
2023-05-05T08:34:08.811Z,1.52
2023-05-05T08:35:10.169Z,1.45
2023-05-05T08:36:08.845Z,1.50
2023-05-05T08:37:09.850Z,1.55
2023-05-05T08:38:08.904Z,1.55
2023-05-05T08:39:08.891Z,1.59
2023-05-05T08:40:08.933Z,1.59
2023-05-05T08:41:08.897Z,1.58
2023-05-05T08:42:09.984Z,1.61
2023-05-05T08:43:09.473Z,1.68
2023-05-05T08:44:09.022Z,1.69
2023-05-05T08:45:09.569Z,1.69
2023-05-05T08:46:09.096Z,1.75
2023-05-05T08:47:09.400Z,1.77
2023-05-05T08:48:09.120Z,1.70
2023-05-05T08:49:10.274Z,1.74
2023-05-05T08:50:10.166Z,1.70
2023-05-05T08:51:09.183Z,1.77
2023-05-05T08:52:09.225Z,1.77
2023-05-05T08:53:09.225Z,1.64
2023-05-05T08:54:10.220Z,1.71
2023-05-05T08:55:10.374Z,1.63
2023-05-05T08:56:09.288Z,1.57
2023-05-05T08:57:10.305Z,1.51
2023-05-05T08:58:10.226Z,1.53
2023-05-05T08:59:10.462Z,1.53
2023-05-05T09:00:09.222Z,1.54
2023-05-05T09:01:09.326Z,1.60
2023-05-05T09:02:09.332Z,1.60
2023-05-05T09:03:09.444Z,1.65
2023-05-05T09:04:09.302Z,1.65
2023-05-05T09:05:09.578Z,1.71
2023-05-05T09:06:10.305Z,1.72
2023-05-05T09:07:09.261Z,1.78
2023-05-05T09:08:10.350Z,1.79
2023-05-05T09:09:09.427Z,1.82
2023-05-05T09:10:09.420Z,1.81
2023-05-05T09:11:10.352Z,1.91
2023-05-05T09:12:09.366Z,1.92
2023-05-05T09:13:09.545Z,1.86
2023-05-05T09:14:09.404Z,1.90
2023-05-05T09:15:10.660Z,1.96
2023-05-05T09:16:09.478Z,1.97
2023-05-05T09:17:09.546Z,2.01
2023-05-05T09:18:10.498Z,2.06
2023-05-05T09:19:09.631Z,2.03
2023-05-05T09:20:09.504Z,2.09
2023-05-05T09:21:10.480Z,2.08
2023-05-05T09:22:10.500Z,2.14
2023-05-05T09:23:10.583Z,2.18
2023-05-05T09:24:09.859Z,2.13
2023-05-05T09:25:09.811Z,2.19
2023-05-05T09:26:10.618Z,2.43
2023-05-05T09:27:09.599Z,2.45
2023-05-05T09:28:09.672Z,2.42
2023-05-05T09:29:09.690Z,2.44
2023-05-05T09:30:09.709Z,2.45
2023-05-05T09:31:09.680Z,2.41
2023-05-05T09:32:10.717Z,2.36
2023-05-05T09:33:09.767Z,2.42
2023-05-05T09:34:09.750Z,2.48
2023-05-05T09:35:09.906Z,2.43
2023-05-05T09:36:09.689Z,2.45
2023-05-05T09:37:10.774Z,2.53
2023-05-05T09:38:09.794Z,2.55
2023-05-05T09:39:09.786Z,2.60
2023-05-05T09:40:09.934Z,2.62
2023-05-05T09:41:09.786Z,2.58
2023-05-05T09:42:09.763Z,2.71
2023-05-05T09:43:09.732Z,2.67
2023-05-05T09:44:10.830Z,2.68
2023-05-05T09:45:09.990Z,2.76
2023-05-05T09:46:10.837Z,2.77
2023-05-05T09:47:25.981Z,2.80
2023-05-05T09:48:10.816Z,2.80
2023-05-05T09:49:09.941Z,2.82
2023-05-05T09:50:10.744Z,2.84
2023-05-05T09:51:10.925Z,2.85
2023-05-05T09:52:09.707Z,2.86
2023-05-05T09:53:09.695Z,2.90
2023-05-05T09:54:10.931Z,2.95
2023-05-05T09:55:09.750Z,2.94
2023-05-05T09:56:09.740Z,2.99
2023-05-05T09:57:09.687Z,2.96
2023-05-05T09:58:10.763Z,2.97
2023-05-05T09:59:09.681Z,3.06
2023-05-05T10:00:10.862Z,3.00
2023-05-05T10:01:10.774Z,3.02
2023-05-05T10:02:09.745Z,2.93
2023-05-05T10:03:09.714Z,3.04
2023-05-05T10:04:09.689Z,3.00
2023-05-05T10:05:09.924Z,3.13
2023-05-05T10:06:10.663Z,3.06
2023-05-05T10:07:09.724Z,3.07
2023-05-05T10:08:09.608Z,3.25
2023-05-05T10:09:10.604Z,3.33
2023-05-05T10:10:10.839Z,3.32
2023-05-05T10:11:09.631Z,3.31
2023-05-05T10:12:10.717Z,3.26
2023-05-05T10:13:09.671Z,3.29
2023-05-05T10:14:09.689Z,3.29
2023-05-05T10:15:09.590Z,3.26
2023-05-05T10:16:10.597Z,3.30
2023-05-05T10:17:09.571Z,3.27
2023-05-05T10:18:09.616Z,3.30
2023-05-05T10:19:09.606Z,3.24
2023-05-05T10:20:10.672Z,3.20
2023-05-05T10:21:09.510Z,3.28
2023-05-05T10:22:09.566Z,3.26
2023-05-05T10:23:09.527Z,3.24
2023-05-05T10:24:10.557Z,3.29
2023-05-05T10:25:09.495Z,3.28
2023-05-05T10:26:10.516Z,3.33
2023-05-05T10:27:11.568Z,3.26
2023-05-05T10:28:10.505Z,3.27
2023-05-05T10:29:10.500Z,3.34
2023-05-05T10:30:10.811Z,3.29
2023-05-05T10:31:24.532Z,3.32
2023-05-05T10:32:33.469Z,3.33
2023-05-05T10:33:30.174Z,3.33
2023-05-05T10:34:10.668Z,3.33
2023-05-05T10:35:10.493Z,3.37
2023-05-05T10:36:09.494Z,3.39
2023-05-05T10:37:09.454Z,3.41
2023-05-05T10:38:09.461Z,3.41
2023-05-05T10:39:09.602Z,3.37
2023-05-05T10:40:09.748Z,3.42
2023-05-05T10:41:10.388Z,3.39
2023-05-05T10:42:10.378Z,3.40
2023-05-05T10:43:10.590Z,3.36
2023-05-05T10:44:09.536Z,3.31
2023-05-05T10:45:09.505Z,3.30
2023-05-05T10:46:09.451Z,3.31
2023-05-05T10:47:09.417Z,3.36
2023-05-05T10:48:09.410Z,3.38
2023-05-05T10:49:12.919Z,3.39
2023-05-05T10:50:09.490Z,3.39
2023-05-05T10:51:09.331Z,3.41
2023-05-05T10:52:09.306Z,3.40
2023-05-05T10:53:09.306Z,3.39
2023-05-05T10:54:10.407Z,3.32
2023-05-05T10:55:09.370Z,3.44
2023-05-05T10:56:09.298Z,3.38
2023-05-05T10:57:10.444Z,6.05
2023-05-05T10:58:09.335Z,5.05
2023-05-05T10:59:10.334Z,5.47
2023-05-05T11:00:09.561Z,5.04
2023-05-05T11:01:09.333Z,4.58
2023-05-05T11:02:09.290Z,4.24
2023-05-05T11:03:09.317Z,4.09
2023-05-05T11:04:10.356Z,4.06
2023-05-05T11:05:10.309Z,3.92
2023-05-05T11:06:09.274Z,3.80
2023-05-05T11:07:13.755Z,3.75
2023-05-05T11:08:09.243Z,3.76
2023-05-05T11:09:09.251Z,3.73
2023-05-05T11:10:09.585Z,3.74
2023-05-05T11:11:09.335Z,3.73
2023-05-05T11:12:09.256Z,3.69
2023-05-05T11:13:10.256Z,3.61
2023-05-05T11:14:09.166Z,3.68
2023-05-05T11:15:10.165Z,3.56
2023-05-05T11:16:09.210Z,3.59
2023-05-05T11:17:09.271Z,3.60
2023-05-05T11:18:10.228Z,3.56
2023-05-05T11:19:10.270Z,3.59
2023-05-05T11:20:09.392Z,3.55
2023-05-05T11:21:10.236Z,3.50
2023-05-05T11:22:09.292Z,3.58
2023-05-05T11:23:09.316Z,3.44
2023-05-05T11:24:10.336Z,3.45
2023-05-05T11:25:09.324Z,3.45
2023-05-05T11:26:09.309Z,3.41
2023-05-05T11:27:10.372Z,3.31
2023-05-05T11:28:10.522Z,3.50
2023-05-05T11:29:10.363Z,3.41
2023-05-05T11:30:09.736Z,3.43
2023-05-05T11:31:09.380Z,3.37
2023-05-05T11:32:10.424Z,3.41
2023-05-05T11:33:09.547Z,3.28
2023-05-05T11:34:10.469Z,3.31
2023-05-05T11:35:09.497Z,3.30
2023-05-05T11:36:10.449Z,3.29
2023-05-05T11:37:10.457Z,3.21
2023-05-05T11:38:10.615Z,3.24
2023-05-05T11:39:09.544Z,3.20
2023-05-05T11:40:10.253Z,3.15
2023-05-05T11:41:10.628Z,3.14
2023-05-05T11:42:11.016Z,3.10
2023-05-05T11:43:10.607Z,3.15
2023-05-05T11:44:10.590Z,3.14
2023-05-05T11:45:09.708Z,3.06
2023-05-05T11:46:09.705Z,3.08
2023-05-05T11:47:10.673Z,3.13
2023-05-05T11:48:10.744Z,3.07
2023-05-05T11:49:10.624Z,3.12
2023-05-05T11:50:09.843Z,3.07
2023-05-05T11:51:09.719Z,3.04
2023-05-05T11:52:09.785Z,3.07
2023-05-05T11:53:10.803Z,3.04
2023-05-05T11:54:10.820Z,3.10
2023-05-05T11:55:09.823Z,3.09
2023-05-05T11:56:09.873Z,3.06
2023-05-05T11:57:09.830Z,3.08
2023-05-05T11:58:09.875Z,3.10
2023-05-05T11:59:10.048Z,3.06
2023-05-05T12:00:10.311Z,3.05
2023-05-05T12:01:10.993Z,3.08
2023-05-05T12:02:10.015Z,3.04
2023-05-05T12:03:10.065Z,3.03
2023-05-05T12:04:10.248Z,3.00
2023-05-05T12:05:11.143Z,2.97
2023-05-05T12:06:10.049Z,2.99
2023-05-05T12:07:11.070Z,2.95
2023-05-05T12:08:10.176Z,2.97
2023-05-05T12:09:10.188Z,2.95
2023-05-05T12:10:10.456Z,2.95
2023-05-05T12:11:10.283Z,2.92
2023-05-05T12:12:10.277Z,2.89
2023-05-05T12:13:11.457Z,2.88
2023-05-05T12:14:10.426Z,2.83
2023-05-05T12:15:10.524Z,2.87
2023-05-05T12:16:11.526Z,2.87
2023-05-05T12:17:10.593Z,2.82
2023-05-05T12:18:11.622Z,2.78
2023-05-05T12:19:10.733Z,2.78
2023-05-05T12:20:11.275Z,2.79
2023-05-05T12:21:10.818Z,2.78
2023-05-05T12:22:10.884Z,2.75
2023-05-05T12:23:11.889Z,2.77
2023-05-05T12:24:11.956Z,2.69
2023-05-05T12:25:11.054Z,2.69
2023-05-05T12:26:11.006Z,2.69
2023-05-05T12:27:11.080Z,2.66
2023-05-05T12:28:12.183Z,2.60
2023-05-05T12:29:11.236Z,2.59
2023-05-05T12:30:11.338Z,2.55
2023-05-05T12:31:11.552Z,2.53
2023-05-05T12:32:11.406Z,2.54
2023-05-05T12:33:12.373Z,2.52
2023-05-05T12:34:12.438Z,2.49
2023-05-05T12:35:11.588Z,2.52
2023-05-05T12:36:11.611Z,2.51
2023-05-05T12:37:12.642Z,2.50
2023-05-05T12:38:11.680Z,2.57
2023-05-05T12:39:11.714Z,2.48
2023-05-05T12:40:12.781Z,2.51
2023-05-05T12:41:11.871Z,2.46
2023-05-05T12:42:12.952Z,2.45
2023-05-05T12:43:12.005Z,2.51
2023-05-05T12:44:12.054Z,2.49
2023-05-05T12:45:13.175Z,2.49
2023-05-05T12:46:13.167Z,2.54
2023-05-05T12:47:12.262Z,2.46
2023-05-05T12:48:12.250Z,2.42
2023-05-05T12:49:12.422Z,2.44
2023-05-05T12:50:13.425Z,2.45
2023-05-05T12:51:13.434Z,2.41
2023-05-05T12:52:12.451Z,2.46
2023-05-05T12:53:12.589Z,2.45
2023-05-05T12:54:12.556Z,2.50
2023-05-05T12:55:12.635Z,2.44
2023-05-05T12:56:12.761Z,2.45
2023-05-05T12:57:12.838Z,2.47
2023-05-05T12:58:12.836Z,2.43
2023-05-05T12:59:12.894Z,2.43
2023-05-05T13:00:12.893Z,2.45
2023-05-05T13:01:12.985Z,2.40
2023-05-05T13:02:13.009Z,2.40
2023-05-05T13:03:13.207Z,2.39
2023-05-05T13:04:13.117Z,2.40
2023-05-05T13:05:13.261Z,2.39
2023-05-05T13:06:13.364Z,2.38
2023-05-05T13:07:13.387Z,2.40
2023-05-05T13:08:13.406Z,2.37
2023-05-05T13:09:14.500Z,2.39
2023-05-05T13:10:14.562Z,2.40
2023-05-05T13:11:13.539Z,2.40
2023-05-05T13:12:14.688Z,2.42
2023-05-05T13:13:13.808Z,2.37
2023-05-05T13:14:14.750Z,2.37
2023-05-05T13:15:14.901Z,2.35
2023-05-05T13:16:14.012Z,2.36
2023-05-05T13:17:15.038Z,2.34
2023-05-05T13:18:15.076Z,2.35
2023-05-05T13:19:14.289Z,2.34
2023-05-05T13:20:15.079Z,2.28
2023-05-05T13:21:14.310Z,2.33
2023-05-05T13:22:15.264Z,2.28
2023-05-05T13:23:14.364Z,2.30
2023-05-05T13:24:26.087Z,2.27
2023-05-05T13:25:15.407Z,2.27
2023-05-05T13:26:14.380Z,2.28
2023-05-05T13:27:15.397Z,2.30
2023-05-05T13:28:14.421Z,2.29
2023-05-05T13:29:15.412Z,2.34
2023-05-05T13:30:15.313Z,2.32
2023-05-05T13:31:14.432Z,2.30
2023-05-05T13:32:14.427Z,2.29
2023-05-05T13:33:14.341Z,2.30
2023-05-05T13:34:15.436Z,2.30
2023-05-05T13:35:16.417Z,2.25
2023-05-05T13:36:14.546Z,2.30
2023-05-05T13:37:14.531Z,2.27
2023-05-05T13:38:15.658Z,2.30
2023-05-05T13:39:15.754Z,2.26
2023-05-05T13:40:14.677Z,2.25
2023-05-05T13:41:15.889Z,2.25
2023-05-05T13:42:15.815Z,2.28
2023-05-05T13:43:15.960Z,2.26
2023-05-05T13:44:15.985Z,2.26
2023-05-05T13:45:15.081Z,2.23
2023-05-05T13:46:20.133Z,2.20
2023-05-05T13:47:15.161Z,2.21
2023-05-05T13:48:16.142Z,2.21
2023-05-05T13:49:15.099Z,2.22
2023-05-05T13:50:15.240Z,2.24
2023-05-05T13:51:15.384Z,2.23
2023-05-05T13:52:15.291Z,2.22
2023-05-05T13:53:16.322Z,2.24
2023-05-05T13:54:16.396Z,2.26
2023-05-05T13:55:16.516Z,2.25
2023-05-05T13:56:15.549Z,2.17
2023-05-05T13:57:15.637Z,2.21
2023-05-05T13:58:15.673Z,2.18
2023-05-05T13:59:15.805Z,2.20
2023-05-05T14:00:16.838Z,2.19
2023-05-05T14:01:17.059Z,2.21
2023-05-05T14:02:15.986Z,2.22
2023-05-05T14:03:16.019Z,2.15
2023-05-05T14:04:16.127Z,2.21
2023-05-05T14:05:16.088Z,2.18
2023-05-05T14:06:16.236Z,2.18
2023-05-05T14:07:16.415Z,2.18
2023-05-05T14:08:16.288Z,2.18
2023-05-05T14:09:16.329Z,2.15
2023-05-05T14:10:16.434Z,2.14
2023-05-05T14:11:17.531Z,2.15
2023-05-05T14:12:16.529Z,2.13
2023-05-05T14:13:17.749Z,2.10
2023-05-05T14:14:17.646Z,2.12
2023-05-05T14:15:17.769Z,2.12
2023-05-05T14:16:16.829Z,2.11
2023-05-05T14:17:16.862Z,2.07
2023-05-05T14:18:17.928Z,2.10
2023-05-05T14:19:16.966Z,2.09
2023-05-05T14:20:17.062Z,2.11
2023-05-05T14:21:18.061Z,2.11
2023-05-05T14:22:17.160Z,2.12
2023-05-05T14:23:18.324Z,2.07
2023-05-05T14:24:17.268Z,2.08
2023-05-05T14:25:17.365Z,2.06
2023-05-05T14:26:17.406Z,2.04
2023-05-05T14:27:18.455Z,2.08
2023-05-05T14:28:18.531Z,2.06
2023-05-05T14:29:17.581Z,2.06
2023-05-05T14:30:18.678Z,2.05
2023-05-05T14:31:17.806Z,2.04
2023-05-05T14:32:17.961Z,2.04
2023-05-05T14:33:17.772Z,2.02
2023-05-05T14:34:17.894Z,1.98
2023-05-05T14:35:17.873Z,1.93
2023-05-05T14:36:19.020Z,1.99
2023-05-05T14:37:19.019Z,2.00
2023-05-05T14:38:18.064Z,1.96
2023-05-05T14:39:19.182Z,1.98
2023-05-05T14:40:18.203Z,1.99
2023-05-05T14:41:19.200Z,2.00
2023-05-05T14:42:18.301Z,2.01
2023-05-05T14:43:18.396Z,1.96
2023-05-05T14:44:18.416Z,1.96
2023-05-05T14:45:18.485Z,1.97
2023-05-05T14:46:18.591Z,1.96
2023-05-05T14:47:18.553Z,1.95
2023-05-05T14:48:18.572Z,1.94
2023-05-05T14:49:18.630Z,1.95
2023-05-05T14:50:18.784Z,1.91
2023-05-05T14:51:19.875Z,1.94
2023-05-05T14:52:18.809Z,1.95
2023-05-05T14:53:19.901Z,1.90
2023-05-05T14:54:27.791Z,1.89
2023-05-05T14:55:20.014Z,1.89
2023-05-05T14:56:19.885Z,1.90
2023-05-05T14:57:18.951Z,1.89
2023-05-05T14:58:18.862Z,1.91
2023-05-05T14:59:18.950Z,1.90
2023-05-05T15:00:18.955Z,1.90
2023-05-05T15:01:18.901Z,1.87
2023-05-05T15:02:19.945Z,1.90
2023-05-05T15:03:18.914Z,1.90
2023-05-05T15:04:19.837Z,1.88
2023-05-05T15:05:18.896Z,1.84
2023-05-05T15:06:18.938Z,1.86
2023-05-05T15:07:18.884Z,1.85
2023-05-05T15:08:18.866Z,1.85
2023-05-05T15:09:19.881Z,1.82
2023-05-05T15:10:21.746Z,1.85
2023-05-05T15:11:19.013Z,1.84
2023-05-05T15:12:18.948Z,1.80
2023-05-05T15:13:19.217Z,1.84
2023-05-05T15:14:18.957Z,1.85
2023-05-05T15:15:19.899Z,1.79
2023-05-05T15:16:19.005Z,1.82
2023-05-05T15:17:18.963Z,1.80
2023-05-05T15:18:18.926Z,1.81
2023-05-05T15:19:19.850Z,1.80
2023-05-05T15:20:19.902Z,1.82
2023-05-05T15:21:18.867Z,1.77
2023-05-05T15:22:18.931Z,1.83
2023-05-05T15:23:18.928Z,1.83
2023-05-05T15:24:18.824Z,1.81
2023-05-05T15:25:19.811Z,1.82
2023-05-05T15:26:19.846Z,1.83
2023-05-05T15:27:19.095Z,1.80
2023-05-05T15:28:18.888Z,1.81
2023-05-05T15:29:18.864Z,1.84
